sensor_id;sensor_type;location;lat;lon;timestamp;pressure;altitude;pressure_sealevel;temperature;humidity
60417;BME280;46263;44.726;10.396;2022-07-06T00:00:43;100317.78;;;25.74;82.25
60417;BME280;46263;44.726;10.396;2022-07-06T00:03:09;100311.34;;;25.61;83.99
60417;BME280;46263;44.726;10.396;2022-07-06T00:05:34;100309.72;;;25.60;84.21
60417;BME280;46263;44.726;10.396;2022-07-06T00:07:59;100310.97;;;25.24;86.88
60417;BME280;46263;44.726;10.396;2022-07-06T00:10:25;100318.28;;;25.03;88.61
60417;BME280;46263;44.726;10.396;2022-07-06T00:12:50;100320.06;;;25.08;87.97
60417;BME280;46263;44.726;10.396;2022-07-06T00:15:15;100327.97;;;25.01;89.30
60417;BME280;46263;44.726;10.396;2022-07-06T00:17:40;100328.63;;;25.06;88.44
60417;BME280;46263;44.726;10.396;2022-07-06T00:20:06;100330.69;;;25.27;88.00
60417;BME280;46263;44.726;10.396;2022-07-06T00:22:31;100340.44;;;25.07;88.21
60417;BME280;46263;44.726;10.396;2022-07-06T00:24:57;100343.47;;;25.14;88.56
60417;BME280;46263;44.726;10.396;2022-07-06T00:27:22;100343.84;;;25.04;88.40
60417;BME280;46263;44.726;10.396;2022-07-06T00:29:47;100352.72;;;25.01;89.84
60417;BME280;46263;44.726;10.396;2022-07-06T00:32:13;100357.03;;;24.84;91.53
60417;BME280;46263;44.726;10.396;2022-07-06T00:34:38;100364.38;;;25.06;90.10
60417;BME280;46263;44.726;10.396;2022-07-06T00:37:06;100366.91;;;24.94;90.88
60417;BME280;46263;44.726;10.396;2022-07-06T00:39:32;100369.81;;;24.89;91.77
60417;BME280;46263;44.726;10.396;2022-07-06T00:41:58;100368.69;;;24.73;93.26
60417;BME280;46263;44.726;10.396;2022-07-06T00:44:23;100370.97;;;24.71;94.56
60417;BME280;46263;44.726;10.396;2022-07-06T00:46:48;100376.78;;;24.69;95.10
60417;BME280;46263;44.726;10.396;2022-07-06T00:49:14;100375.44;;;24.58;96.72
60417;BME280;46263;44.726;10.396;2022-07-06T00:51:58;100383.88;;;24.53;97.64
60417;BME280;46263;44.726;10.396;2022-07-06T00:54:24;100382.59;;;24.68;95.81
60417;BME280;46263;44.726;10.396;2022-07-06T00:56:50;100390.03;;;24.84;94.44
60417;BME280;46263;44.726;10.396;2022-07-06T00:59:16;100389.88;;;24.81;94.78
60417;BME280;46263;44.726;10.396;2022-07-06T01:01:41;100388.41;;;24.83;94.22
60417;BME280;46263;44.726;10.396;2022-07-06T01:04:06;100386.81;;;24.74;94.76
60417;BME280;46263;44.726;10.396;2022-07-06T01:06:31;100395.00;;;24.56;95.88
60417;BME280;46263;44.726;10.396;2022-07-06T01:08:57;100384.97;;;24.43;95.75
60417;BME280;46263;44.726;10.396;2022-07-06T01:11:24;100387.25;;;24.58;94.06
60417;BME280;46263;44.726;10.396;2022-07-06T01:13:50;100389.03;;;24.46;94.75
60417;BME280;46263;44.726;10.396;2022-07-06T01:16:16;100382.56;;;24.50;94.15
60417;BME280;46263;44.726;10.396;2022-07-06T01:18:42;100380.28;;;24.44;91.91
60417;BME280;46263;44.726;10.396;2022-07-06T01:21:11;100390.25;;;24.31;90.17
60417;BME280;46263;44.726;10.396;2022-07-06T01:23:43;100397.72;;;24.39;89.19
60417;BME280;46263;44.726;10.396;2022-07-06T01:26:09;100390.63;;;24.55;88.07
60417;BME280;46263;44.726;10.396;2022-07-06T01:28:35;100387.19;;;24.33;87.32
60417;BME280;46263;44.726;10.396;2022-07-06T01:31:00;100394.03;;;24.44;87.11
60417;BME280;46263;44.726;10.396;2022-07-06T01:33:25;100391.63;;;24.51;84.92
60417;BME280;46263;44.726;10.396;2022-07-06T01:35:50;100383.63;;;24.32;85.71
60417;BME280;46263;44.726;10.396;2022-07-06T01:38:16;100380.09;;;24.32;86.13
60417;BME280;46263;44.726;10.396;2022-07-06T01:40:41;100379.13;;;24.36;84.07
60417;BME280;46263;44.726;10.396;2022-07-06T01:43:06;100382.97;;;24.27;82.26
60417;BME280;46263;44.726;10.396;2022-07-06T01:45:32;100377.72;;;24.47;81.46
60417;BME280;46263;44.726;10.396;2022-07-06T01:47:58;100384.34;;;24.46;80.99
60417;BME280;46263;44.726;10.396;2022-07-06T01:50:23;100380.50;;;24.16;81.13
60417;BME280;46263;44.726;10.396;2022-07-06T01:52:48;100388.97;;;24.29;81.01
60417;BME280;46263;44.726;10.396;2022-07-06T01:55:14;100387.22;;;24.41;80.68
60417;BME280;46263;44.726;10.396;2022-07-06T01:57:39;100390.56;;;24.30;80.85
60417;BME280;46263;44.726;10.396;2022-07-06T02:00:06;100391.31;;;24.13;80.40
60417;BME280;46263;44.726;10.396;2022-07-06T02:02:31;100396.13;;;24.07;79.81
60417;BME280;46263;44.726;10.396;2022-07-06T02:04:57;100396.69;;;24.27;78.77
60417;BME280;46263;44.726;10.396;2022-07-06T02:07:22;100394.69;;;24.10;79.26
60417;BME280;46263;44.726;10.396;2022-07-06T02:09:47;100404.59;;;23.88;79.17
60417;BME280;46263;44.726;10.396;2022-07-06T02:12:12;100404.63;;;24.28;77.12
60417;BME280;46263;44.726;10.396;2022-07-06T02:14:38;100408.84;;;24.34;76.97
60417;BME280;46263;44.726;10.396;2022-07-06T02:17:03;100411.34;;;24.53;76.47
60417;BME280;46263;44.726;10.396;2022-07-06T02:19:28;100421.19;;;24.54;76.43
60417;BME280;46263;44.726;10.396;2022-07-06T02:21:54;100418.25;;;24.42;77.21
60417;BME280;46263;44.726;10.396;2022-07-06T02:24:19;100433.78;;;24.46;77.25
60417;BME280;46263;44.726;10.396;2022-07-06T02:26:44;100428.94;;;24.61;76.38
60417;BME280;46263;44.726;10.396;2022-07-06T02:29:09;100436.03;;;24.44;76.46
60417;BME280;46263;44.726;10.396;2022-07-06T02:31:35;100444.41;;;24.39;76.64
60417;BME280;46263;44.726;10.396;2022-07-06T02:34:00;100443.97;;;24.54;75.87
60417;BME280;46263;44.726;10.396;2022-07-06T02:36:25;100449.63;;;24.58;75.09
60417;BME280;46263;44.726;10.396;2022-07-06T02:38:51;100467.44;;;24.69;75.32
60417;BME280;46263;44.726;10.396;2022-07-06T02:41:16;100464.03;;;24.64;74.88
60417;BME280;46263;44.726;10.396;2022-07-06T02:43:41;100475.03;;;24.64;75.33
60417;BME280;46263;44.726;10.396;2022-07-06T02:46:07;100479.84;;;24.49;76.98
60417;BME280;46263;44.726;10.396;2022-07-06T02:48:32;100472.94;;;24.69;74.93
60417;BME280;46263;44.726;10.396;2022-07-06T02:50:57;100469.72;;;24.67;74.89
60417;BME280;46263;44.726;10.396;2022-07-06T02:53:23;100479.75;;;24.72;75.47
60417;BME280;46263;44.726;10.396;2022-07-06T02:55:49;100487.59;;;24.47;77.13
60417;BME280;46263;44.726;10.396;2022-07-06T02:58:14;100484.03;;;24.47;77.20
60417;BME280;46263;44.726;10.396;2022-07-06T03:00:39;100486.72;;;24.38;77.82
60417;BME280;46263;44.726;10.396;2022-07-06T03:03:05;100484.31;;;24.37;78.10
60417;BME280;46263;44.726;10.396;2022-07-06T03:05:30;100483.41;;;24.50;77.51
60417;BME280;46263;44.726;10.396;2022-07-06T03:07:55;100477.59;;;24.51;77.58
60417;BME280;46263;44.726;10.396;2022-07-06T03:10:20;100485.94;;;24.38;77.68
60417;BME280;46263;44.726;10.396;2022-07-06T03:12:46;100485.06;;;24.29;77.48
60417;BME280;46263;44.726;10.396;2022-07-06T03:15:11;100485.13;;;24.37;77.41
60417;BME280;46263;44.726;10.396;2022-07-06T03:17:37;100494.03;;;24.43;76.70
60417;BME280;46263;44.726;10.396;2022-07-06T03:20:04;100494.63;;;24.31;78.16
60417;BME280;46263;44.726;10.396;2022-07-06T03:22:29;100491.88;;;24.31;78.10
60417;BME280;46263;44.726;10.396;2022-07-06T03:24:55;100488.94;;;24.28;77.88
60417;BME280;46263;44.726;10.396;2022-07-06T03:27:20;100505.19;;;24.15;78.36
60417;BME280;46263;44.726;10.396;2022-07-06T03:29:45;100501.22;;;24.30;77.68
60417;BME280;46263;44.726;10.396;2022-07-06T03:32:10;100502.09;;;24.39;76.71
60417;BME280;46263;44.726;10.396;2022-07-06T03:34:36;100516.34;;;24.19;79.03
60417;BME280;46263;44.726;10.396;2022-07-06T03:37:01;100516.94;;;24.38;77.60
60417;BME280;46263;44.726;10.396;2022-07-06T03:39:26;100516.31;;;24.41;76.91
60417;BME280;46263;44.726;10.396;2022-07-06T03:41:52;100511.94;;;24.40;76.90
60417;BME280;46263;44.726;10.396;2022-07-06T03:44:17;100510.41;;;24.26;77.47
60417;BME280;46263;44.726;10.396;2022-07-06T03:46:42;100513.53;;;24.33;77.64
60417;BME280;46263;44.726;10.396;2022-07-06T03:49:08;100516.16;;;24.15;78.36
60417;BME280;46263;44.726;10.396;2022-07-06T03:51:33;100517.28;;;24.14;78.38
60417;BME280;46263;44.726;10.396;2022-07-06T03:53:58;100514.03;;;24.35;77.73
60417;BME280;46263;44.726;10.396;2022-07-06T03:56:24;100523.66;;;24.23;78.96
60417;BME280;46263;44.726;10.396;2022-07-06T03:58:59;100528.41;;;24.09;80.62
60417;BME280;46263;44.726;10.396;2022-07-06T04:01:25;100525.16;;;24.07;80.29
60417;BME280;46263;44.726;10.396;2022-07-06T04:03:50;100530.25;;;24.00;81.93
60417;BME280;46263;44.726;10.396;2022-07-06T04:06:16;100528.34;;;24.01;82.20
60417;BME280;46263;44.726;10.396;2022-07-06T04:08:41;100524.34;;;24.07;82.18
60417;BME280;46263;44.726;10.396;2022-07-06T04:11:07;100519.47;;;24.04;81.79
60417;BME280;46263;44.726;10.396;2022-07-06T04:13:32;100521.19;;;23.91;83.08
60417;BME280;46263;44.726;10.396;2022-07-06T04:15:57;100514.56;;;23.70;84.52
60417;BME280;46263;44.726;10.396;2022-07-06T04:18:23;100517.94;;;23.89;83.88
60417;BME280;46263;44.726;10.396;2022-07-06T04:20:48;100518.75;;;23.67;85.01
60417;BME280;46263;44.726;10.396;2022-07-06T04:23:14;100516.81;;;23.68;84.65
60417;BME280;46263;44.726;10.396;2022-07-06T04:25:39;100513.44;;;23.71;84.90
60417;BME280;46263;44.726;10.396;2022-07-06T04:28:04;100517.50;;;23.73;85.13
60417;BME280;46263;44.726;10.396;2022-07-06T04:30:30;100506.78;;;23.63;86.44
60417;BME280;46263;44.726;10.396;2022-07-06T04:32:55;100501.91;;;23.82;85.71
60417;BME280;46263;44.726;10.396;2022-07-06T04:35:20;100508.09;;;23.88;85.52
60417;BME280;46263;44.726;10.396;2022-07-06T04:37:46;100509.63;;;23.80;85.33
60417;BME280;46263;44.726;10.396;2022-07-06T04:40:11;100502.34;;;23.76;86.33
60417;BME280;46263;44.726;10.396;2022-07-06T04:42:37;100506.59;;;23.82;85.82
60417;BME280;46263;44.726;10.396;2022-07-06T04:45:03;100505.19;;;23.71;85.85
60417;BME280;46263;44.726;10.396;2022-07-06T04:47:28;100510.53;;;23.89;84.85
60417;BME280;46263;44.726;10.396;2022-07-06T04:49:53;100517.94;;;23.89;84.69
60417;BME280;46263;44.726;10.396;2022-07-06T04:52:19;100523.94;;;23.91;84.68
60417;BME280;46263;44.726;10.396;2022-07-06T04:54:44;100531.88;;;24.01;84.29
60417;BME280;46263;44.726;10.396;2022-07-06T04:57:09;100522.91;;;24.09;83.96
60417;BME280;46263;44.726;10.396;2022-07-06T04:59:34;100528.91;;;23.89;84.67
60417;BME280;46263;44.726;10.396;2022-07-06T05:02:00;100521.25;;;23.77;85.68
60417;BME280;46263;44.726;10.396;2022-07-06T05:04:25;100521.84;;;23.97;85.04
60417;BME280;46263;44.726;10.396;2022-07-06T05:06:50;100520.31;;;23.82;85.49
60417;BME280;46263;44.726;10.396;2022-07-06T05:09:16;100519.38;;;23.64;87.01
60417;BME280;46263;44.726;10.396;2022-07-06T05:11:41;100523.47;;;23.75;86.02
60417;BME280;46263;44.726;10.396;2022-07-06T05:14:07;100524.25;;;23.67;86.52
60417;BME280;46263;44.726;10.396;2022-07-06T05:16:36;100535.22;;;23.67;86.05
60417;BME280;46263;44.726;10.396;2022-07-06T05:19:02;100534.72;;;23.65;86.45
60417;BME280;46263;44.726;10.396;2022-07-06T05:24:32;100538.00;;;23.98;85.38
60417;BME280;46263;44.726;10.396;2022-07-06T05:26:57;100537.94;;;24.12;83.76
60417;BME280;46263;44.726;10.396;2022-07-06T05:29:22;100546.41;;;24.02;84.42
60417;BME280;46263;44.726;10.396;2022-07-06T05:31:48;100548.03;;;24.03;85.59
60417;BME280;46263;44.726;10.396;2022-07-06T05:34:13;100545.25;;;23.72;85.68
60417;BME280;46263;44.726;10.396;2022-07-06T05:36:38;100559.16;;;23.98;84.83
60417;BME280;46263;44.726;10.396;2022-07-06T05:39:03;100559.53;;;24.05;84.24
60417;BME280;46263;44.726;10.396;2022-07-06T05:41:29;100572.38;;;24.18;83.17
60417;BME280;46263;44.726;10.396;2022-07-06T05:43:54;100572.56;;;23.99;84.50
60417;BME280;46263;44.726;10.396;2022-07-06T05:46:19;100565.44;;;23.76;86.31
60417;BME280;46263;44.726;10.396;2022-07-06T05:48:45;100572.94;;;23.62;86.58
60417;BME280;46263;44.726;10.396;2022-07-06T05:51:29;100562.72;;;23.76;84.80
60417;BME280;46263;44.726;10.396;2022-07-06T05:53:54;100573.53;;;23.95;84.04
60417;BME280;46263;44.726;10.396;2022-07-06T05:56:19;100572.94;;;23.84;84.03
60417;BME280;46263;44.726;10.396;2022-07-06T05:58:44;100576.91;;;23.55;85.67
60417;BME280;46263;44.726;10.396;2022-07-06T06:01:10;100578.53;;;23.56;85.84
60417;BME280;46263;44.726;10.396;2022-07-06T06:03:35;100571.25;;;23.74;84.74
60417;BME280;46263;44.726;10.396;2022-07-06T06:06:01;100568.06;;;23.81;84.47
60417;BME280;46263;44.726;10.396;2022-07-06T06:08:26;100567.78;;;23.82;84.16
60417;BME280;46263;44.726;10.396;2022-07-06T06:10:52;100571.50;;;24.09;83.76
60417;BME280;46263;44.726;10.396;2022-07-06T06:13:17;100572.72;;;23.94;83.45
60417;BME280;46263;44.726;10.396;2022-07-06T06:15:43;100574.44;;;23.90;85.55
60417;BME280;46263;44.726;10.396;2022-07-06T06:18:08;100584.72;;;24.07;84.37
60417;BME280;46263;44.726;10.396;2022-07-06T06:20:33;100586.13;;;24.18;82.82
60417;BME280;46263;44.726;10.396;2022-07-06T06:22:59;100598.03;;;24.13;83.65
60417;BME280;46263;44.726;10.396;2022-07-06T06:25:32;100596.22;;;24.31;82.36
60417;BME280;46263;44.726;10.396;2022-07-06T06:27:58;100599.97;;;24.35;82.67
60417;BME280;46263;44.726;10.396;2022-07-06T06:30:23;100600.28;;;24.34;83.19
60417;BME280;46263;44.726;10.396;2022-07-06T06:32:49;100601.59;;;24.36;82.49
60417;BME280;46263;44.726;10.396;2022-07-06T06:35:14;100606.66;;;24.43;82.03
60417;BME280;46263;44.726;10.396;2022-07-06T06:37:40;100610.66;;;24.37;81.69
60417;BME280;46263;44.726;10.396;2022-07-06T06:40:05;100606.06;;;24.54;80.04
60417;BME280;46263;44.726;10.396;2022-07-06T06:42:31;100607.34;;;24.26;81.83
60417;BME280;46263;44.726;10.396;2022-07-06T06:44:57;100601.66;;;24.22;82.12
60417;BME280;46263;44.726;10.396;2022-07-06T06:47:22;100602.84;;;24.30;81.09
60417;BME280;46263;44.726;10.396;2022-07-06T06:49:50;100612.22;;;24.29;80.30
60417;BME280;46263;44.726;10.396;2022-07-06T06:52:16;100616.25;;;24.32;79.96
60417;BME280;46263;44.726;10.396;2022-07-06T06:54:41;100619.13;;;24.49;80.46
60417;BME280;46263;44.726;10.396;2022-07-06T06:57:06;100616.44;;;24.35;79.73
60417;BME280;46263;44.726;10.396;2022-07-06T06:59:31;100617.84;;;24.86;77.61
60417;BME280;46263;44.726;10.396;2022-07-06T07:01:57;100623.50;;;25.12;76.85
60417;BME280;46263;44.726;10.396;2022-07-06T07:04:22;100614.75;;;25.18;76.87
60417;BME280;46263;44.726;10.396;2022-07-06T07:06:51;100612.31;;;25.17;76.10
60417;BME280;46263;44.726;10.396;2022-07-06T07:09:16;100610.03;;;25.02;76.72
60417;BME280;46263;44.726;10.396;2022-07-06T07:11:41;100618.66;;;24.86;77.70
60417;BME280;46263;44.726;10.396;2022-07-06T07:14:06;100622.31;;;24.73;77.16
60417;BME280;46263;44.726;10.396;2022-07-06T07:16:32;100623.50;;;25.20;76.10
60417;BME280;46263;44.726;10.396;2022-07-06T07:18:58;100617.69;;;25.22;76.90
60417;BME280;46263;44.726;10.396;2022-07-06T07:21:23;100622.19;;;25.18;76.44
60417;BME280;46263;44.726;10.396;2022-07-06T07:23:48;100617.31;;;25.06;75.60
60417;BME280;46263;44.726;10.396;2022-07-06T07:26:15;100617.31;;;25.06;75.78
60417;BME280;46263;44.726;10.396;2022-07-06T07:28:40;100610.69;;;25.16;75.91
60417;BME280;46263;44.726;10.396;2022-07-06T07:31:06;100600.72;;;25.46;74.90
60417;BME280;46263;44.726;10.396;2022-07-06T07:33:32;100609.97;;;25.50;74.20
60417;BME280;46263;44.726;10.396;2022-07-06T07:35:57;100611.28;;;25.52;74.46
60417;BME280;46263;44.726;10.396;2022-07-06T07:38:22;100596.53;;;25.48;74.70
60417;BME280;46263;44.726;10.396;2022-07-06T07:40:48;100599.16;;;25.62;73.54
60417;BME280;46263;44.726;10.396;2022-07-06T07:43:13;100603.09;;;25.70;71.77
60417;BME280;46263;44.726;10.396;2022-07-06T07:45:38;100602.59;;;25.68;72.53
60417;BME280;46263;44.726;10.396;2022-07-06T07:48:04;100601.47;;;25.69;72.85
60417;BME280;46263;44.726;10.396;2022-07-06T07:50:30;100598.84;;;25.64;72.50
60417;BME280;46263;44.726;10.396;2022-07-06T07:52:55;100593.16;;;25.60;72.74
60417;BME280;46263;44.726;10.396;2022-07-06T07:55:20;100592.38;;;25.85;71.96
60417;BME280;46263;44.726;10.396;2022-07-06T07:57:45;100592.50;;;26.15;71.70
60417;BME280;46263;44.726;10.396;2022-07-06T08:00:11;100597.06;;;26.19;70.92
60417;BME280;46263;44.726;10.396;2022-07-06T08:02:36;100593.31;;;26.24;71.52
60417;BME280;46263;44.726;10.396;2022-07-06T08:05:02;100595.44;;;26.10;73.64
60417;BME280;46263;44.726;10.396;2022-07-06T08:07:27;100598.84;;;26.15;72.28
60417;BME280;46263;44.726;10.396;2022-07-06T08:09:53;100599.31;;;26.09;71.48
60417;BME280;46263;44.726;10.396;2022-07-06T08:12:18;100605.34;;;25.94;72.62
60417;BME280;46263;44.726;10.396;2022-07-06T08:14:43;100600.47;;;25.82;72.78
60417;BME280;46263;44.726;10.396;2022-07-06T08:17:08;100605.66;;;25.83;73.13
60417;BME280;46263;44.726;10.396;2022-07-06T08:19:34;100598.69;;;25.95;73.31
60417;BME280;46263;44.726;10.396;2022-07-06T08:21:59;100596.91;;;26.07;72.77
60417;BME280;46263;44.726;10.396;2022-07-06T08:24:24;100598.84;;;26.07;72.46
60417;BME280;46263;44.726;10.396;2022-07-06T08:26:49;100589.91;;;26.18;71.85
60417;BME280;46263;44.726;10.396;2022-07-06T08:29:15;100592.19;;;25.99;71.20
60417;BME280;46263;44.726;10.396;2022-07-06T08:31:40;100598.34;;;26.22;72.50
60417;BME280;46263;44.726;10.396;2022-07-06T08:34:05;100595.59;;;26.31;70.86
60417;BME280;46263;44.726;10.396;2022-07-06T08:36:31;100594.59;;;26.44;69.98
60417;BME280;46263;44.726;10.396;2022-07-06T08:38:56;100595.97;;;26.67;71.14
60417;BME280;46263;44.726;10.396;2022-07-06T08:41:23;100599.66;;;26.80;69.96
60417;BME280;46263;44.726;10.396;2022-07-06T08:43:49;100601.47;;;26.76;70.00
60417;BME280;46263;44.726;10.396;2022-07-06T08:46:15;100600.09;;;26.99;69.88
60417;BME280;46263;44.726;10.396;2022-07-06T08:48:40;100599.28;;;26.90;68.68
60417;BME280;46263;44.726;10.396;2022-07-06T08:51:06;100595.56;;;26.86;69.76
60417;BME280;46263;44.726;10.396;2022-07-06T08:53:32;100594.25;;;27.01;68.76
60417;BME280;46263;44.726;10.396;2022-07-06T08:55:57;100596.16;;;27.09;68.25
60417;BME280;46263;44.726;10.396;2022-07-06T08:58:26;100595.56;;;27.24;67.84
60417;BME280;46263;44.726;10.396;2022-07-06T09:00:55;100588.13;;;27.16;68.36
60417;BME280;46263;44.726;10.396;2022-07-06T09:03:21;100589.84;;;27.29;68.04
60417;BME280;46263;44.726;10.396;2022-07-06T09:05:46;100587.94;;;27.21;66.98
60417;BME280;46263;44.726;10.396;2022-07-06T09:08:12;100584.88;;;27.43;67.93
60417;BME280;46263;44.726;10.396;2022-07-06T09:10:37;100581.81;;;27.15;66.61
60417;BME280;46263;44.726;10.396;2022-07-06T09:13:03;100590.19;;;27.48;67.45
60417;BME280;46263;44.726;10.396;2022-07-06T09:15:30;100592.28;;;27.60;68.47
60417;BME280;46263;44.726;10.396;2022-07-06T09:17:55;100588.88;;;27.75;67.10
60417;BME280;46263;44.726;10.396;2022-07-06T09:20:21;100586.59;;;27.77;66.64
60417;BME280;46263;44.726;10.396;2022-07-06T09:22:46;100588.88;;;27.96;66.51
60417;BME280;46263;44.726;10.396;2022-07-06T09:25:12;100588.47;;;27.85;68.00
60417;BME280;46263;44.726;10.396;2022-07-06T09:27:39;100589.84;;;27.79;67.09
60417;BME280;46263;44.726;10.396;2022-07-06T09:30:06;100585.22;;;28.25;67.83
60417;BME280;46263;44.726;10.396;2022-07-06T09:32:32;100589.53;;;28.47;67.35
60417;BME280;46263;44.726;10.396;2022-07-06T09:35:02;100584.31;;;27.79;65.34
60417;BME280;46263;44.726;10.396;2022-07-06T09:37:28;100591.25;;;28.18;66.21
60417;BME280;46263;44.726;10.396;2022-07-06T09:39:54;100582.97;;;28.51;66.99
60417;BME280;46263;44.726;10.396;2022-07-06T09:42:23;100589.97;;;28.37;67.50
60417;BME280;46263;44.726;10.396;2022-07-06T09:44:49;100595.25;;;28.09;65.90
60417;BME280;46263;44.726;10.396;2022-07-06T09:47:14;100596.28;;;28.25;65.64
60417;BME280;46263;44.726;10.396;2022-07-06T09:49:39;100594.00;;;28.39;65.16
60417;BME280;46263;44.726;10.396;2022-07-06T09:52:06;100590.59;;;28.54;65.53
60417;BME280;46263;44.726;10.396;2022-07-06T09:54:33;100590.25;;;27.90;66.01
60417;BME280;46263;44.726;10.396;2022-07-06T09:56:58;100585.03;;;28.42;67.16
60417;BME280;46263;44.726;10.396;2022-07-06T09:59:27;100592.25;;;28.92;64.49
60417;BME280;46263;44.726;10.396;2022-07-06T10:01:54;100587.19;;;28.94;64.10
60417;BME280;46263;44.726;10.396;2022-07-06T10:04:20;100593.66;;;28.86;64.81
60417;BME280;46263;44.726;10.396;2022-07-06T10:06:45;100591.47;;;29.16;64.08
60417;BME280;46263;44.726;10.396;2022-07-06T10:09:12;100598.50;;;29.13;63.68
60417;BME280;46263;44.726;10.396;2022-07-06T10:11:38;100591.53;;;29.19;64.20
60417;BME280;46263;44.726;10.396;2022-07-06T10:14:05;100595.56;;;29.34;63.56
60417;BME280;46263;44.726;10.396;2022-07-06T10:16:30;100597.53;;;29.34;63.42
60417;BME280;46263;44.726;10.396;2022-07-06T10:18:56;100596.63;;;28.81;64.79
60417;BME280;46263;44.726;10.396;2022-07-06T10:21:22;100591.69;;;28.99;64.27
60417;BME280;46263;44.726;10.396;2022-07-06T10:23:48;100592.25;;;29.04;62.61
60417;BME280;46263;44.726;10.396;2022-07-06T10:26:14;100588.28;;;28.69;62.12
60417;BME280;46263;44.726;10.396;2022-07-06T10:28:40;100571.81;;;28.72;62.48
60417;BME280;46263;44.726;10.396;2022-07-06T10:31:06;100574.13;;;29.31;62.94
60417;BME280;46263;44.726;10.396;2022-07-06T10:33:33;100574.66;;;29.61;62.60
60417;BME280;46263;44.726;10.396;2022-07-06T10:35:58;100577.47;;;29.24;62.88
60417;BME280;46263;44.726;10.396;2022-07-06T10:38:33;100583.94;;;28.92;63.79
60417;BME280;46263;44.726;10.396;2022-07-06T10:41:05;100573.59;;;29.01;63.57
60417;BME280;46263;44.726;10.396;2022-07-06T10:43:35;100574.84;;;29.40;61.89
60417;BME280;46263;44.726;10.396;2022-07-06T10:46:08;100568.13;;;30.53;61.13
60417;BME280;46263;44.726;10.396;2022-07-06T10:48:34;100561.16;;;30.75;59.29
60417;BME280;46263;44.726;10.396;2022-07-06T10:51:00;100557.59;;;30.59;59.11
60417;BME280;46263;44.726;10.396;2022-07-06T10:53:29;100562.81;;;30.16;60.30
60417;BME280;46263;44.726;10.396;2022-07-06T10:55:56;100567.72;;;29.67;60.96
60417;BME280;46263;44.726;10.396;2022-07-06T11:00:59;100567.53;;;30.75;58.37
60417;BME280;46263;44.726;10.396;2022-07-06T11:11:19;100561.13;;;31.06;54.23
60417;BME280;46263;44.726;10.396;2022-07-06T11:13:48;100561.16;;;30.75;59.04
60417;BME280;46263;44.726;10.396;2022-07-06T11:16:15;100559.56;;;30.74;58.67
60417;BME280;46263;44.726;10.396;2022-07-06T11:18:41;100546.38;;;31.18;56.34
60417;BME280;46263;44.726;10.396;2022-07-06T11:21:15;100542.00;;;31.17;54.39
60417;BME280;46263;44.726;10.396;2022-07-06T11:23:41;100534.66;;;30.93;57.22
60417;BME280;46263;44.726;10.396;2022-07-06T11:26:06;100523.81;;;31.58;52.88
60417;BME280;46263;44.726;10.396;2022-07-06T11:28:32;100530.41;;;31.88;54.05
60417;BME280;46263;44.726;10.396;2022-07-06T11:30:57;100535.50;;;32.06;52.22
60417;BME280;46263;44.726;10.396;2022-07-06T11:33:31;100523.34;;;32.33;50.90
60417;BME280;46263;44.726;10.396;2022-07-06T11:38:37;100521.16;;;32.46;50.06
60417;BME280;46263;44.726;10.396;2022-07-06T11:41:02;100515.63;;;32.72;51.56
60417;BME280;46263;44.726;10.396;2022-07-06T11:43:28;100512.13;;;32.75;50.14
60417;BME280;46263;44.726;10.396;2022-07-06T11:45:53;100506.56;;;32.75;51.27
60417;BME280;46263;44.726;10.396;2022-07-06T11:48:18;100501.72;;;32.72;50.01
60417;BME280;46263;44.726;10.396;2022-07-06T11:50:43;100504.84;;;32.71;48.99
60417;BME280;46263;44.726;10.396;2022-07-06T11:53:21;100500.28;;;31.91;48.82
60417;BME280;46263;44.726;10.396;2022-07-06T11:55:46;100485.97;;;32.34;49.33
60417;BME280;46263;44.726;10.396;2022-07-06T11:58:12;100479.81;;;32.44;51.36
60417;BME280;46263;44.726;10.396;2022-07-06T12:00:38;100465.75;;;32.34;51.68
60417;BME280;46263;44.726;10.396;2022-07-06T12:03:03;100464.00;;;33.01;48.46
60417;BME280;46263;44.726;10.396;2022-07-06T12:05:31;100463.13;;;32.97;49.46
60417;BME280;46263;44.726;10.396;2022-07-06T12:08:04;100478.97;;;32.93;48.28
60417;BME280;46263;44.726;10.396;2022-07-06T12:10:32;100479.69;;;33.43;47.51
60417;BME280;46263;44.726;10.396;2022-07-06T12:13:04;100494.38;;;33.40;45.90
60417;BME280;46263;44.726;10.396;2022-07-06T12:15:29;100499.38;;;33.94;46.43
60417;BME280;46263;44.726;10.396;2022-07-06T12:17:55;100489.00;;;33.58;47.07
60417;BME280;46263;44.726;10.396;2022-07-06T12:20:23;100500.13;;;31.83;51.03
60417;BME280;46263;44.726;10.396;2022-07-06T12:22:49;100492.41;;;32.38;48.42
60417;BME280;46263;44.726;10.396;2022-07-06T12:25:28;100486.22;;;32.48;48.00
60417;BME280;46263;44.726;10.396;2022-07-06T12:27:54;100482.72;;;32.51;48.27
60417;BME280;46263;44.726;10.396;2022-07-06T12:30:19;100479.66;;;32.34;47.57
60417;BME280;46263;44.726;10.396;2022-07-06T12:32:45;100479.06;;;32.47;48.37
60417;BME280;46263;44.726;10.396;2022-07-06T12:35:10;100470.16;;;31.54;50.82
60417;BME280;46263;44.726;10.396;2022-07-06T12:37:36;100469.03;;;31.74;50.93
60417;BME280;46263;44.726;10.396;2022-07-06T12:40:02;100471.34;;;31.53;49.66
60417;BME280;46263;44.726;10.396;2022-07-06T12:42:27;100471.88;;;31.39;50.76
60417;BME280;46263;44.726;10.396;2022-07-06T12:44:53;100476.75;;;31.65;49.51
60417;BME280;46263;44.726;10.396;2022-07-06T12:47:22;100477.72;;;31.73;49.74
60417;BME280;46263;44.726;10.396;2022-07-06T12:49:48;100476.75;;;32.07;49.20